Time;durP1;ratioP1;P1;durP2;ratioP2;P2;SDS_P1;SDS_P2;PMS_P1;PMS_P2;Temp;Humidity;BMP_temperature;BMP_pressure;BME280_temperature;BME280_humidity;BME280_pressure;Samples;Min_cycle;Max_cycle;Signal;HPM_P1;HPM_P2
2023/07/19 00:01:33;;;;;;;6.63;3.10;;;;;;;;;;5073859;28;20059;-72
2023/07/19 00:03:59;;;;;;;11.55;3.83;;;;;;;;;;5055747;28;20044;-72
2023/07/19 00:06:25;;;;;;;11.77;3.70;;;;;;;;;;5055654;28;20433;-72
2023/07/19 00:08:52;;;;;;;9.40;4.00;;;;;;;;;;5072234;28;20459;-72
2023/07/19 00:11:18;;;;;;;8.13;3.58;;;;;;;;;;5073126;28;20132;-72
2023/07/19 00:13:44;;;;;;;9.65;4.00;;;;;;;;;;5073176;28;20055;-72
2023/07/19 00:16:10;;;;;;;8.65;3.60;;;;;;;;;;5072013;28;20051;-72
2023/07/19 00:18:36;;;;;;;10.73;3.75;;;;;;;;;;5072120;28;20058;-72
2023/07/19 00:21:02;;;;;;;6.78;3.88;;;;;;;;;;5073259;28;20067;-71
2023/07/19 00:23:29;;;;;;;7.72;3.95;;;;;;;;;;5073204;28;20049;-71
2023/07/19 00:25:55;;;;;;;6.88;3.80;;;;;;;;;;5072882;28;20131;-71
2023/07/19 00:28:21;;;;;;;8.48;3.95;;;;;;;;;;5073323;28;20045;-72
2023/07/19 00:30:47;;;;;;;9.15;4.00;;;;;;;;;;5055381;28;20048;-71
2023/07/19 00:33:13;;;;;;;6.47;3.55;;;;;;;;;;5073172;28;20381;-73
2023/07/19 00:35:43;;;;;;;8.07;4.00;;;;;;;;;;5072741;28;20408;-71
2023/07/19 00:38:09;;;;;;;10.80;4.10;;;;;;;;;;5072963;28;20048;-72
2023/07/19 00:40:35;;;;;;;9.45;3.88;;;;;;;;;;5072656;28;20076;-72
2023/07/19 00:43:01;;;;;;;8.20;4.00;;;;;;;;;;5054941;28;20135;-72
2023/07/19 00:45:28;;;;;;;7.75;4.32;;;;;;;;;;5072369;28;20101;-72
2023/07/19 00:47:54;;;;;;;7.68;4.30;;;;;;;;;;5072568;28;20075;-72
2023/07/19 00:50:21;;;;;;;7.72;4.00;;;;;;;;;;5072710;28;20150;-72
2023/07/19 00:52:47;;;;;;;5.93;3.90;;;;;;;;;;5072780;28;20120;-72
2023/07/19 00:55:13;;;;;;;7.63;4.10;;;;;;;;;;5072292;28;20049;-72
2023/07/19 00:57:40;;;;;;;10.60;4.40;;;;;;;;;;5072212;28;20097;-72
2023/07/19 01:00:07;;;;;;;12.30;4.55;;;;;;;;;;5072384;28;20048;-71
2023/07/19 01:02:33;;;;;;;10.68;4.60;;;;;;;;;;5054888;28;20054;-72
2023/07/19 01:04:59;;;;;;;9.05;4.30;;;;;;;;;;5071657;28;20430;-72
2023/07/19 01:07:25;;;;;;;8.23;4.10;;;;;;;;;;5037089;28;20146;-72
2023/07/19 01:09:52;;;;;;;7.53;4.22;;;;;;;;;;5072536;28;20086;-72
2023/07/19 01:12:19;;;;;;;9.73;4.32;;;;;;;;;;5072285;28;20128;-72
2023/07/19 01:14:46;;;;;;;9.35;4.30;;;;;;;;;;5072495;28;20139;-72
2023/07/19 01:17:12;;;;;;;9.07;4.45;;;;;;;;;;5072267;28;20082;-72
2023/07/19 01:19:38;;;;;;;7.00;4.13;;;;;;;;;;5054520;28;20078;-72
2023/07/19 01:22:06;;;;;;;9.38;4.03;;;;;;;;;;5072169;28;20041;-73
2023/07/19 01:24:32;;;;;;;6.82;3.65;;;;;;;;;;5072144;28;20045;-72
2023/07/19 01:26:58;;;;;;;7.57;3.80;;;;;;;;;;5072034;28;20063;-73
2023/07/19 01:29:24;;;;;;;7.57;4.43;;;;;;;;;;5072457;28;20118;-71
2023/07/19 01:31:50;;;;;;;8.40;4.30;;;;;;;;;;5072036;28;20052;-71
2023/07/19 01:34:16;;;;;;;7.88;3.80;;;;;;;;;;5072025;28;20098;-72
2023/07/19 01:36:42;;;;;;;10.55;4.57;;;;;;;;;;5054039;28;20045;-72
2023/07/19 01:39:09;;;;;;;8.98;4.72;;;;;;;;;;5070868;28;20051;-72
2023/07/19 01:41:35;;;;;;;9.43;4.03;;;;;;;;;;5054129;28;20404;-72
2023/07/19 01:44:01;;;;;;;7.68;4.50;;;;;;;;;;5072108;28;20045;-72
2023/07/19 01:46:28;;;;;;;11.10;4.13;;;;;;;;;;5072250;28;20066;-72
2023/07/19 01:48:54;;;;;;;9.05;4.00;;;;;;;;;;5069643;28;20203;-72
2023/07/19 01:51:20;;;;;;;7.72;4.28;;;;;;;;;;5071597;28;20102;-72
2023/07/19 01:53:46;;;;;;;13.30;4.65;;;;;;;;;;5072316;28;20044;-71
2023/07/19 01:56:13;;;;;;;9.88;4.70;;;;;;;;;;5053981;28;20423;-73
2023/07/19 01:58:39;;;;;;;8.07;4.43;;;;;;;;;;5071871;28;20048;-71
2023/07/19 02:01:05;;;;;;;10.23;4.32;;;;;;;;;;5071779;28;20083;-72
2023/07/19 02:03:31;;;;;;;9.63;4.63;;;;;;;;;;5071274;28;20446;-72
2023/07/19 02:06:01;;;;;;;8.73;4.43;;;;;;;;;;5053973;28;20080;-72
2023/07/19 02:08:27;;;;;;;10.40;5.05;;;;;;;;;;5072308;28;20045;-72
2023/07/19 02:10:54;;;;;;;6.88;4.28;;;;;;;;;;5073141;28;20052;-72
2023/07/19 02:13:20;;;;;;;8.57;4.50;;;;;;;;;;5075778;28;20048;-72
2023/07/19 02:15:47;;;;;;;9.10;4.68;;;;;;;;;;5075602;28;20133;-72
2023/07/19 02:18:13;;;;;;;8.52;4.50;;;;;;;;;;5075755;28;20412;-72
2023/07/19 02:20:51;;;;;;;11.15;4.50;;;;;;;;;;5075182;28;20512;-72
2023/07/19 02:23:21;;;;;;;6.82;4.50;;;;;;;;;;5075456;28;20049;-72
2023/07/19 02:25:48;;;;;;;10.77;5.03;;;;;;;;;;5057255;28;20045;-72
2023/07/19 02:28:14;;;;;;;8.73;4.35;;;;;;;;;;5075766;28;20113;-72
2023/07/19 02:30:46;;;;;;;6.40;4.03;;;;;;;;;;5074714;28;20048;-72
2023/07/19 02:33:13;;;;;;;7.43;4.50;;;;;;;;;;5074500;28;20362;-72
2023/07/19 02:35:40;;;;;;;7.72;4.15;;;;;;;;;;5074868;28;20040;-72
2023/07/19 02:38:06;;;;;;;10.88;4.63;;;;;;;;;;5075151;28;20045;-73
2023/07/19 02:40:32;;;;;;;7.20;4.38;;;;;;;;;;5074880;28;20436;-73
2023/07/19 02:42:58;;;;;;;8.75;4.50;;;;;;;;;;5074985;28;20094;-73
2023/07/19 02:45:25;;;;;;;8.05;4.10;;;;;;;;;;5074586;28;20056;-73
2023/07/19 02:47:51;;;;;;;8.63;4.75;;;;;;;;;;5064022;28;20044;-71
2023/07/19 02:50:20;;;;;;;9.43;4.90;;;;;;;;;;5095195;28;20040;-72
2023/07/19 02:52:47;;;;;;;8.05;4.45;;;;;;;;;;5076684;28;20097;-72
2023/07/19 02:55:13;;;;;;;10.30;5.22;;;;;;;;;;5094701;28;20073;-72
2023/07/19 02:57:40;;;;;;;8.95;4.85;;;;;;;;;;5059499;28;20044;-72
2023/07/19 03:00:06;;;;;;;8.38;4.45;;;;;;;;;;5094182;28;20126;-72
2023/07/19 03:02:33;;;;;;;8.73;5.20;;;;;;;;;;5076789;28;20051;-72
2023/07/19 03:04:59;;;;;;;10.27;5.20;;;;;;;;;;5094737;28;20069;-71
2023/07/19 03:07:25;;;;;;;8.10;5.00;;;;;;;;;;5094803;28;20040;-72
2023/07/19 03:09:51;;;;;;;8.73;4.65;;;;;;;;;;5094684;28;20480;-72
2023/07/19 03:12:17;;;;;;;7.63;4.93;;;;;;;;;;5076209;28;20158;-71
2023/07/19 03:14:45;;;;;;;5.80;4.55;;;;;;;;;;5094503;28;20052;-71
2023/07/19 03:17:11;;;;;;;7.50;5.00;;;;;;;;;;5094454;28;20074;-72
2023/07/19 03:19:37;;;;;;;9.77;5.15;;;;;;;;;;5094620;28;20127;-72
2023/07/19 03:22:03;;;;;;;7.43;4.70;;;;;;;;;;5093785;28;20040;-72
2023/07/19 03:24:30;;;;;;;9.40;5.47;;;;;;;;;;5094265;28;20048;-71
2023/07/19 03:26:56;;;;;;;7.05;5.03;;;;;;;;;;5094704;28;20463;-72
2023/07/19 03:29:22;;;;;;;8.27;4.90;;;;;;;;;;5094870;28;20419;-72
2023/07/19 03:31:48;;;;;;;9.00;5.35;;;;;;;;;;5094506;28;20072;-72
2023/07/19 03:34:15;;;;;;;8.90;5.10;;;;;;;;;;5094399;28;20413;-71
2023/07/19 03:36:41;;;;;;;9.20;5.50;;;;;;;;;;5094308;28;20044;-72
2023/07/19 03:39:07;;;;;;;9.98;5.65;;;;;;;;;;5094299;28;20516;-72
2023/07/19 03:41:33;;;;;;;8.88;5.38;;;;;;;;;;5094114;28;20052;-73
2023/07/19 03:43:59;;;;;;;10.00;5.45;;;;;;;;;;5093974;28;20479;-73
2023/07/19 03:46:25;;;;;;;8.15;5.53;;;;;;;;;;5094109;28;20587;-73
2023/07/19 03:48:51;;;;;;;9.00;5.68;;;;;;;;;;5078157;28;20076;-73
2023/07/19 03:51:19;;;;;;;8.43;5.90;;;;;;;;;;5073745;28;20116;-73
2023/07/19 03:53:45;;;;;;;8.60;5.90;;;;;;;;;;5073902;28;20055;-72
2023/07/19 03:56:11;;;;;;;9.02;6.82;;;;;;;;;;5073394;28;20044;-72
2023/07/19 03:58:39;;;;;;;8.60;6.20;;;;;;;;;;5073825;28;20101;-73
2023/07/19 04:01:05;;;;;;;10.63;6.65;;;;;;;;;;5073399;28;20078;-71
2023/07/19 04:03:31;;;;;;;10.95;6.53;;;;;;;;;;5073586;28;20510;-71
2023/07/19 04:05:58;;;;;;;12.05;6.70;;;;;;;;;;5073318;28;20078;-71
2023/07/19 04:08:25;;;;;;;9.48;6.30;;;;;;;;;;5073514;28;20051;-72
2023/07/19 04:10:51;;;;;;;9.98;5.85;;;;;;;;;;5071640;28;20098;-72
2023/07/19 04:13:18;;;;;;;10.10;6.60;;;;;;;;;;5073573;28;20036;-72
2023/07/19 04:15:44;;;;;;;10.45;6.50;;;;;;;;;;5073232;28;20040;-72
2023/07/19 04:18:10;;;;;;;11.90;6.40;;;;;;;;;;5038920;28;20045;-72
2023/07/19 04:20:37;;;;;;;10.18;6.43;;;;;;;;;;5073162;28;20441;-72
2023/07/19 04:23:03;;;;;;;9.25;6.60;;;;;;;;;;5073059;28;20045;-72
2023/07/19 04:25:30;;;;;;;9.35;6.38;;;;;;;;;;5072703;28;20105;-72
2023/07/19 04:27:57;;;;;;;11.25;7.32;;;;;;;;;;5073432;28;20036;-72
2023/07/19 04:30:23;;;;;;;8.65;6.68;;;;;;;;;;5073016;28;20097;-72
2023/07/19 04:32:51;;;;;;;11.45;6.78;;;;;;;;;;5072558;28;20058;-72
2023/07/19 04:35:18;;;;;;;10.93;6.75;;;;;;;;;;5072593;28;20182;-72
2023/07/19 04:37:44;;;;;;;9.98;7.13;;;;;;;;;;5072952;28;20068;-71
2023/07/19 04:40:10;;;;;;;10.40;7.50;;;;;;;;;;5072705;28;20053;-72
2023/07/19 04:42:36;;;;;;;10.05;7.18;;;;;;;;;;5055023;28;20496;-72
2023/07/19 04:45:03;;;;;;;9.73;6.95;;;;;;;;;;5054630;28;20094;-72
2023/07/19 04:47:29;;;;;;;9.93;6.72;;;;;;;;;;5076858;28;20040;-72
2023/07/19 04:49:56;;;;;;;9.20;6.75;;;;;;;;;;5092211;28;20055;-72
2023/07/19 04:52:22;;;;;;;12.02;6.90;;;;;;;;;;5091262;28;20051;-72
2023/07/19 04:54:48;;;;;;;10.63;6.90;;;;;;;;;;5092306;28;20123;-72
2023/07/19 04:57:15;;;;;;;10.98;6.72;;;;;;;;;;5092822;28;20123;-72
2023/07/19 04:59:42;;;;;;;11.70;7.13;;;;;;;;;;5092645;28;20530;-73
2023/07/19 05:02:08;;;;;;;11.13;6.90;;;;;;;;;;5091585;28;20046;-72
2023/07/19 05:04:34;;;;;;;10.40;6.80;;;;;;;;;;5090961;28;20088;-72
2023/07/19 05:07:00;;;;;;;12.07;7.10;;;;;;;;;;5092024;28;20472;-72
2023/07/19 05:09:26;;;;;;;10.75;6.65;;;;;;;;;;5092837;28;20058;-72
2023/07/19 05:11:53;;;;;;;8.73;6.75;;;;;;;;;;5074706;28;20463;-72
2023/07/19 05:14:19;;;;;;;9.35;6.40;;;;;;;;;;5091341;28;20104;-71
2023/07/19 05:16:45;;;;;;;10.30;6.82;;;;;;;;;;5092490;28;20062;-72
2023/07/19 05:19:12;;;;;;;13.50;6.30;;;;;;;;;;5092348;28;20036;-72
2023/07/19 05:21:38;;;;;;;10.65;6.05;;;;;;;;;;5092354;28;20044;-71
2023/07/19 05:24:04;;;;;;;10.20;5.88;;;;;;;;;;5092333;28;20052;-72
2023/07/19 05:26:30;;;;;;;9.18;5.80;;;;;;;;;;5074093;28;20425;-72
2023/07/19 05:28:57;;;;;;;8.45;5.50;;;;;;;;;;5092429;28;20119;-71
2023/07/19 05:31:23;;;;;;;9.38;5.63;;;;;;;;;;5074167;28;20093;-71
2023/07/19 05:33:49;;;;;;;11.30;5.40;;;;;;;;;;5092371;28;20040;-71
2023/07/19 05:36:15;;;;;;;11.48;5.40;;;;;;;;;;5092093;28;20056;-71
2023/07/19 05:38:41;;;;;;;11.27;5.20;;;;;;;;;;5092279;28;20123;-72
2023/07/19 05:41:07;;;;;;;12.48;5.28;;;;;;;;;;5091886;28;20070;-71
2023/07/19 05:43:34;;;;;;;13.45;5.88;;;;;;;;;;5089763;28;20044;-71
2023/07/19 05:46:03;;;;;;;12.07;5.18;;;;;;;;;;5094758;28;20048;-72
2023/07/19 05:48:29;;;;;;;9.90;4.90;;;;;;;;;;5083485;28;20076;-72
2023/07/19 05:50:55;;;;;;;11.50;5.13;;;;;;;;;;5075927;28;20179;-72
2023/07/19 05:53:22;;;;;;;12.90;5.10;;;;;;;;;;5075135;28;20091;-71
2023/07/19 05:55:48;;;;;;;16.08;5.72;;;;;;;;;;5073960;28;20103;-71
2023/07/19 05:58:14;;;;;;;9.63;4.93;;;;;;;;;;5076082;28;20048;-71
2023/07/19 06:00:40;;;;;;;11.45;5.25;;;;;;;;;;5057857;28;20048;-72
2023/07/19 06:03:06;;;;;;;11.18;4.85;;;;;;;;;;5075837;28;20037;-72
2023/07/19 06:05:33;;;;;;;10.57;5.40;;;;;;;;;;5075588;28;20448;-72
2023/07/19 06:07:59;;;;;;;10.90;4.53;;;;;;;;;;5075713;28;20040;-72
2023/07/19 06:10:25;;;;;;;11.32;5.43;;;;;;;;;;5057170;28;20049;-72
2023/07/19 06:12:51;;;;;;;8.18;4.40;;;;;;;;;;5075745;28;20172;-72
2023/07/19 06:15:18;;;;;;;8.98;4.65;;;;;;;;;;5075187;28;20044;-72
2023/07/19 06:17:44;;;;;;;9.43;4.63;;;;;;;;;;5075269;28;20040;-72
2023/07/19 06:20:10;;;;;;;8.60;3.70;;;;;;;;;;5057490;28;20450;-72
2023/07/19 06:22:37;;;;;;;8.13;3.50;;;;;;;;;;5075182;28;20447;-72
2023/07/19 06:25:03;;;;;;;7.57;3.72;;;;;;;;;;5075169;28;20036;-72
2023/07/19 06:27:30;;;;;;;6.40;3.58;;;;;;;;;;5056754;28;20468;-73
2023/07/19 06:29:56;;;;;;;7.25;3.42;;;;;;;;;;5074172;28;20101;-72
2023/07/19 06:32:22;;;;;;;13.07;3.75;;;;;;;;;;5075011;28;20393;-72
2023/07/19 06:34:48;;;;;;;7.43;3.70;;;;;;;;;;5074895;28;20055;-72
2023/07/19 06:37:14;;;;;;;7.68;3.60;;;;;;;;;;5074736;28;20079;-71
2023/07/19 06:39:41;;;;;;;7.80;3.40;;;;;;;;;;5074608;28;20036;-71
2023/07/19 06:42:07;;;;;;;6.03;3.30;;;;;;;;;;5074516;28;20089;-72
2023/07/19 06:44:34;;;;;;;7.82;3.47;;;;;;;;;;5070685;28;20063;-72
2023/07/19 06:47:00;;;;;;;7.93;3.40;;;;;;;;;;5056632;28;20040;-72
2023/07/19 06:49:26;;;;;;;7.55;3.10;;;;;;;;;;5095000;28;20044;-72
2023/07/19 06:51:52;;;;;;;7.53;3.50;;;;;;;;;;5092568;28;20475;-72
2023/07/19 06:54:18;;;;;;;8.18;2.90;;;;;;;;;;5093476;28;20127;-72
2023/07/19 06:56:45;;;;;;;8.27;3.05;;;;;;;;;;5093348;28;20032;-72
2023/07/19 06:59:11;;;;;;;10.13;3.15;;;;;;;;;;5094602;28;20054;-72
2023/07/19 07:01:37;;;;;;;6.32;3.28;;;;;;;;;;5094465;28;20044;-72
2023/07/19 07:04:03;;;;;;;9.15;3.47;;;;;;;;;;5094714;28;20059;-72
2023/07/19 07:06:29;;;;;;;10.30;3.70;;;;;;;;;;5094531;28;20556;-73
2023/07/19 07:08:56;;;;;;;5.55;3.28;;;;;;;;;;5076440;28;20040;-72
2023/07/19 07:11:22;;;;;;;9.50;3.38;;;;;;;;;;5094505;28;20407;-72
2023/07/19 07:13:48;;;;;;;9.65;3.78;;;;;;;;;;5094554;28;20083;-72
2023/07/19 07:16:14;;;;;;;9.70;3.60;;;;;;;;;;5093983;28;20047;-72
2023/07/19 07:18:40;;;;;;;9.23;4.07;;;;;;;;;;5093713;28;20048;-73
2023/07/19 07:21:06;;;;;;;10.60;3.38;;;;;;;;;;5094161;28;20059;-73
2023/07/19 07:23:32;;;;;;;9.60;3.35;;;;;;;;;;5094404;28;20075;-72
2023/07/19 07:25:58;;;;;;;8.93;3.40;;;;;;;;;;5093949;28;20504;-72
2023/07/19 07:28:25;;;;;;;7.40;3.10;;;;;;;;;;5094323;28;20036;-72
2023/07/19 07:30:51;;;;;;;9.05;2.90;;;;;;;;;;5094122;28;20054;-72
2023/07/19 07:33:19;;;;;;;5.65;2.60;;;;;;;;;;5094402;28;20036;-72
2023/07/19 07:35:46;;;;;;;9.30;2.60;;;;;;;;;;5094007;28;20071;-72
2023/07/19 07:38:12;;;;;;;7.32;2.60;;;;;;;;;;5076266;28;20130;-72
2023/07/19 07:40:38;;;;;;;8.65;2.78;;;;;;;;;;5075726;28;20048;-72
2023/07/19 07:43:04;;;;;;;5.53;2.17;;;;;;;;;;5094289;28;20048;-72
2023/07/19 07:45:30;;;;;;;6.30;2.70;;;;;;;;;;5092180;28;20515;-72
2023/07/19 07:47:56;;;;;;;8.02;2.88;;;;;;;;;;5083250;28;20377;-72
2023/07/19 07:50:24;;;;;;;5.55;2.30;;;;;;;;;;5071836;28;20382;-72
2023/07/19 07:52:50;;;;;;;4.72;2.30;;;;;;;;;;5072987;28;20400;-71
2023/07/19 07:55:16;;;;;;;6.38;2.42;;;;;;;;;;5089966;28;20122;-72
2023/07/19 07:57:42;;;;;;;7.03;2.25;;;;;;;;;;5093505;28;20104;-72
2023/07/19 08:00:11;;;;;;;7.13;2.17;;;;;;;;;;5093760;28;20048;-73
2023/07/19 08:02:38;;;;;;;6.03;2.15;;;;;;;;;;5091276;28;20040;-72
2023/07/19 08:05:04;;;;;;;8.23;2.40;;;;;;;;;;5058596;28;20051;-72
2023/07/19 08:07:31;;;;;;;5.78;2.03;;;;;;;;;;5075267;28;20126;-72
2023/07/19 08:09:57;;;;;;;5.75;2.53;;;;;;;;;;5075207;28;20166;-72
2023/07/19 08:12:24;;;;;;;5.35;2.00;;;;;;;;;;5091805;28;20502;-72
2023/07/19 08:14:50;;;;;;;5.68;2.05;;;;;;;;;;5092172;28;20040;-73
2023/07/19 08:17:16;;;;;;;6.25;2.22;;;;;;;;;;5093390;28;20048;-73
2023/07/19 08:19:43;;;;;;;4.00;1.80;;;;;;;;;;5093296;28;20066;-73
2023/07/19 08:22:23;;;;;;;4.82;2.20;;;;;;;;;;5091615;28;20094;-73
2023/07/19 08:24:49;;;;;;;7.13;2.22;;;;;;;;;;5091296;28;20040;-73
2023/07/19 08:27:15;;;;;;;5.40;2.20;;;;;;;;;;5093280;28;20076;-73
2023/07/19 08:29:41;;;;;;;4.75;2.10;;;;;;;;;;5093493;28;20048;-73
2023/07/19 08:32:07;;;;;;;5.43;2.20;;;;;;;;;;5093149;28;20454;-73
2023/07/19 08:34:34;;;;;;;7.40;2.53;;;;;;;;;;5093075;28;20062;-73
2023/07/19 08:37:00;;;;;;;5.93;2.10;;;;;;;;;;5092487;28;20380;-73
2023/07/19 08:39:29;;;;;;;5.47;2.22;;;;;;;;;;5092330;28;20122;-73
2023/07/19 08:41:55;;;;;;;5.05;1.95;;;;;;;;;;5093024;28;20396;-72
2023/07/19 08:44:25;;;;;;;8.13;2.08;;;;;;;;;;5074562;28;20063;-71
2023/07/19 08:46:51;;;;;;;4.60;1.70;;;;;;;;;;5092507;28;20094;-72
2023/07/19 08:49:18;;;;;;;4.03;1.92;;;;;;;;;;5073282;28;20481;-72
2023/07/19 08:51:45;;;;;;;7.72;1.73;;;;;;;;;;5072206;28;20369;-72
2023/07/19 08:54:12;;;;;;;5.38;2.10;;;;;;;;;;5087219;28;20142;-72
2023/07/19 08:56:41;;;;;;;3.90;1.80;;;;;;;;;;5092545;28;20036;-73
2023/07/19 08:59:08;;;;;;;6.15;1.70;;;;;;;;;;5092850;28;20075;-73
2023/07/19 09:01:34;;;;;;;8.32;2.08;;;;;;;;;;5092310;28;20520;-73
2023/07/19 09:04:01;;;;;;;6.13;2.20;;;;;;;;;;5074014;28;20055;-73
2023/07/19 09:06:30;;;;;;;8.73;2.28;;;;;;;;;;5074300;28;20081;-73
2023/07/19 09:08:57;;;;;;;3.92;1.95;;;;;;;;;;5074398;28;20052;-74
2023/07/19 09:11:24;;;;;;;6.68;1.95;;;;;;;;;;5074161;28;20098;-73
2023/07/19 09:13:53;;;;;;;9.10;2.00;;;;;;;;;;5074224;28;20044;-73
2023/07/19 09:16:32;;;;;;;5.43;1.92;;;;;;;;;;5074392;28;20488;-73
2023/07/19 09:18:59;;;;;;;5.40;1.98;;;;;;;;;;5074022;28;20447;-73
2023/07/19 09:21:31;;;;;;;7.72;2.13;;;;;;;;;;5092087;28;20047;-73
2023/07/19 09:23:59;;;;;;;4.40;2.20;;;;;;;;;;5092326;28;20129;-73
2023/07/19 09:26:25;;;;;;;6.82;2.10;;;;;;;;;;5092408;28;20349;-73
2023/07/19 09:28:52;;;;;;;4.13;2.10;;;;;;;;;;5073846;28;20395;-73
2023/07/19 09:31:18;;;;;;;6.22;2.05;;;;;;;;;;5090953;28;20132;-73
2023/07/19 09:33:44;;;;;;;3.88;1.80;;;;;;;;;;5071123;28;20079;-72
2023/07/19 09:36:17;;;;;;;5.82;2.20;;;;;;;;;;5090085;28;20055;-72
2023/07/19 09:38:43;;;;;;;6.15;2.05;;;;;;;;;;5091871;28;20131;-73
2023/07/19 09:41:10;;;;;;;4.70;2.10;;;;;;;;;;5091981;28;20086;-72
2023/07/19 09:43:37;;;;;;;6.45;2.15;;;;;;;;;;5092535;28;20091;-72
2023/07/19 09:46:03;;;;;;;8.80;1.85;;;;;;;;;;5091966;28;20109;-73
2023/07/19 09:48:30;;;;;;;4.53;1.92;;;;;;;;;;5078761;28;20052;-72
2023/07/19 09:50:59;;;;;;;6.25;2.17;;;;;;;;;;5071317;28;20054;-73
2023/07/19 09:53:25;;;;;;;5.00;1.98;;;;;;;;;;5072010;28;20128;-73
2023/07/19 09:55:53;;;;;;;4.53;2.08;;;;;;;;;;5070540;28;20041;-73
2023/07/19 09:58:19;;;;;;;6.70;2.00;;;;;;;;;;5072173;28;20056;-73
2023/07/19 10:00:46;;;;;;;5.65;2.28;;;;;;;;;;5071644;28;20515;-73
2023/07/19 10:03:18;;;;;;;3.97;2.05;;;;;;;;;;5073955;28;20396;-73
2023/07/19 10:05:44;;;;;;;5.28;2.33;;;;;;;;;;5091670;28;20526;-73
2023/07/19 10:08:11;;;;;;;4.45;1.90;;;;;;;;;;5090165;28;20040;-73
2023/07/19 10:10:41;;;;;;;10.60;1.95;;;;;;;;;;5091818;28;20047;-73
2023/07/19 10:13:08;;;;;;;4.32;1.80;;;;;;;;;;5091225;28;20124;-73
2023/07/19 10:15:37;;;;;;;4.78;1.73;;;;;;;;;;5091073;28;20427;-73
2023/07/19 10:18:11;;;;;;;4.35;2.00;;;;;;;;;;5091550;28;20028;-73
2023/07/19 10:20:37;;;;;;;4.85;2.15;;;;;;;;;;5091901;28;20550;-72
2023/07/19 10:23:05;;;;;;;5.22;2.35;;;;;;;;;;5091536;28;20040;-72
2023/07/19 10:25:35;;;;;;;6.45;1.85;;;;;;;;;;5091217;28;20484;-72
2023/07/19 10:28:04;;;;;;;5.43;2.30;;;;;;;;;;5072810;28;20091;-71
2023/07/19 10:30:43;;;;;;;6.07;2.10;;;;;;;;;;5090527;28;20051;-72
2023/07/19 10:33:10;;;;;;;6.57;2.10;;;;;;;;;;5094550;28;20040;-72
2023/07/19 10:35:36;;;;;;;4.18;1.90;;;;;;;;;;5075717;28;20097;-72
2023/07/19 10:38:02;;;;;;;5.88;2.00;;;;;;;;;;5095120;28;20420;-72
2023/07/19 10:40:29;;;;;;;5.82;1.88;;;;;;;;;;5094746;28;20087;-72
2023/07/19 10:42:55;;;;;;;4.82;1.98;;;;;;;;;;5092855;28;20825;-73
2023/07/19 10:45:25;;;;;;;4.45;1.80;;;;;;;;;;5093242;28;20494;-73
2023/07/19 10:47:51;;;;;;;4.75;1.90;;;;;;;;;;5087354;28;20045;-73
2023/07/19 10:50:17;;;;;;;4.47;1.80;;;;;;;;;;5073849;28;20048;-73
2023/07/19 10:52:46;;;;;;;6.97;1.90;;;;;;;;;;5054439;28;20556;-73
2023/07/19 10:55:13;;;;;;;3.22;1.55;;;;;;;;;;5073780;28;20090;-73
2023/07/19 10:57:39;;;;;;;4.72;1.90;;;;;;;;;;5074759;28;20132;-73
2023/07/19 11:00:12;;;;;;;5.18;1.80;;;;;;;;;;5074366;28;20048;-73
2023/07/19 11:02:41;;;;;;;5.25;1.85;;;;;;;;;;5074540;28;20120;-73
2023/07/19 11:05:09;;;;;;;3.30;1.60;;;;;;;;;;5056762;28;20124;-73
2023/07/19 11:07:35;;;;;;;3.15;1.45;;;;;;;;;;5074229;28;20484;-73
2023/07/19 11:10:05;;;;;;;3.35;1.67;;;;;;;;;;5087521;28;20094;-73
2023/07/19 11:12:31;;;;;;;4.85;1.63;;;;;;;;;;5094562;28;20450;-72
2023/07/19 11:15:00;;;;;;;3.00;1.60;;;;;;;;;;5094415;28;20047;-73
2023/07/19 11:17:27;;;;;;;5.13;1.80;;;;;;;;;;5094476;28;20403;-73
2023/07/19 11:19:54;;;;;;;4.35;1.70;;;;;;;;;;5076850;28;20058;-72
2023/07/19 11:22:24;;;;;;;5.28;1.77;;;;;;;;;;5094492;28;20091;-72
2023/07/19 11:24:53;;;;;;;4.45;1.67;;;;;;;;;;5094181;28;20396;-73
2023/07/19 11:27:20;;;;;;;3.65;1.48;;;;;;;;;;5075963;28;20056;-73
2023/07/19 11:29:50;;;;;;;4.53;1.60;;;;;;;;;;5075984;28;20097;-73
2023/07/19 11:32:21;;;;;;;3.83;1.70;;;;;;;;;;5094350;28;20113;-73
2023/07/19 11:34:48;;;;;;;2.35;1.40;;;;;;;;;;5075876;28;20043;-73
2023/07/19 11:37:21;;;;;;;4.35;1.60;;;;;;;;;;5093817;28;20092;-73
2023/07/19 11:39:48;;;;;;;5.30;1.80;;;;;;;;;;5094237;28;20044;-74
2023/07/19 11:42:14;;;;;;;1.75;1.10;;;;;;;;;;5093613;28;20065;-73
2023/07/19 11:44:44;;;;;;;3.33;1.40;;;;;;;;;;5093523;28;20064;-73
2023/07/19 11:47:11;;;;;;;2.80;1.30;;;;;;;;;;5091974;28;20048;-73
2023/07/19 11:49:37;;;;;;;4.05;1.50;;;;;;;;;;5054895;28;20039;-73
2023/07/19 11:52:03;;;;;;;4.78;1.30;;;;;;;;;;5072532;28;20044;-72
2023/07/19 11:54:29;;;;;;;2.90;1.30;;;;;;;;;;5073171;28;20083;-73
2023/07/19 11:56:56;;;;;;;3.63;1.80;;;;;;;;;;5055329;28;20115;-73
2023/07/19 11:59:23;;;;;;;3.03;1.40;;;;;;;;;;5071962;28;20047;-73
2023/07/19 12:01:49;;;;;;;4.47;1.30;;;;;;;;;;5071487;28;20048;-71
2023/07/19 12:04:15;;;;;;;3.65;1.40;;;;;;;;;;5073173;28;20052;-73
2023/07/19 12:06:42;;;;;;;3.13;1.13;;;;;;;;;;5073229;28;20450;-72
2023/07/19 12:09:09;;;;;;;3.00;1.30;;;;;;;;;;5072987;28;20040;-72
2023/07/19 12:11:35;;;;;;;2.13;1.23;;;;;;;;;;5072758;28;20048;-72
2023/07/19 12:14:02;;;;;;;3.63;1.33;;;;;;;;;;5074751;28;20072;-72
2023/07/19 12:16:28;;;;;;;2.65;1.40;;;;;;;;;;5092089;28;20147;-72
2023/07/19 12:18:54;;;;;;;3.15;1.30;;;;;;;;;;5093185;28;20115;-72
2023/07/19 12:21:20;;;;;;;3.80;1.27;;;;;;;;;;5093462;28;20112;-73
2023/07/19 12:23:47;;;;;;;2.85;1.30;;;;;;;;;;5093312;28;20162;-72
2023/07/19 12:26:13;;;;;;;1.88;1.20;;;;;;;;;;5091589;28;20454;-73
2023/07/19 12:28:43;;;;;;;3.22;1.40;;;;;;;;;;5093462;28;20036;-73
2023/07/19 12:31:09;;;;;;;6.90;1.48;;;;;;;;;;5093218;28;20036;-73
2023/07/19 12:33:36;;;;;;;2.65;1.42;;;;;;;;;;5075052;28;20445;-74
2023/07/19 12:36:02;;;;;;;2.88;1.27;;;;;;;;;;5092858;28;20056;-72
2023/07/19 12:38:28;;;;;;;3.08;1.20;;;;;;;;;;5092246;28;20040;-72
2023/07/19 12:40:54;;;;;;;4.25;1.42;;;;;;;;;;5092170;28;20044;-73
2023/07/19 12:43:20;;;;;;;3.00;1.23;;;;;;;;;;5092758;28;20040;-73
2023/07/19 12:45:46;;;;;;;3.08;1.17;;;;;;;;;;5092427;28;20048;-72
2023/07/19 12:48:12;;;;;;;2.75;1.25;;;;;;;;;;5082350;28;20040;-72
2023/07/19 12:50:39;;;;;;;3.25;1.40;;;;;;;;;;5072706;28;20037;-72
2023/07/19 12:53:05;;;;;;;3.30;1.20;;;;;;;;;;5072789;28;20467;-72
2023/07/19 12:55:31;;;;;;;2.55;1.17;;;;;;;;;;5071313;28;20083;-72
2023/07/19 12:57:57;;;;;;;3.10;1.13;;;;;;;;;;5072147;28;20500;-73
2023/07/19 13:00:23;;;;;;;3.28;1.27;;;;;;;;;;5072352;28;20048;-72
2023/07/19 13:02:50;;;;;;;4.22;1.40;;;;;;;;;;5072215;28;20044;-72
2023/07/19 13:05:17;;;;;;;2.28;1.20;;;;;;;;;;5072191;28;20063;-72
2023/07/19 13:07:43;;;;;;;3.25;1.45;;;;;;;;;;5070765;28;20049;-72
2023/07/19 13:10:10;;;;;;;2.38;1.00;;;;;;;;;;5071102;28;20123;-73
2023/07/19 13:12:36;;;;;;;2.03;1.20;;;;;;;;;;5071441;28;20048;-72
2023/07/19 13:15:04;;;;;;;2.95;1.20;;;;;;;;;;5054559;28;20036;-73
2023/07/19 13:17:30;;;;;;;4.07;1.20;;;;;;;;;;5089167;28;20534;-72
2023/07/19 13:19:58;;;;;;;2.92;1.20;;;;;;;;;;5092581;28;20059;-72
2023/07/19 13:22:24;;;;;;;2.83;1.30;;;;;;;;;;5092323;28;20040;-73
2023/07/19 13:24:50;;;;;;;4.75;1.23;;;;;;;;;;5092358;28;20048;-72
2023/07/19 13:27:16;;;;;;;3.00;1.10;;;;;;;;;;5074040;28;20135;-72
2023/07/19 13:29:43;;;;;;;2.75;1.13;;;;;;;;;;5074127;28;20040;-72
2023/07/19 13:32:09;;;;;;;2.25;1.23;;;;;;;;;;5092044;28;20044;-72
2023/07/19 13:34:35;;;;;;;2.55;1.35;;;;;;;;;;5074020;28;20044;-72
2023/07/19 13:37:01;;;;;;;2.25;1.10;;;;;;;;;;5091934;28;20047;-72
2023/07/19 13:39:27;;;;;;;2.78;1.20;;;;;;;;;;5073867;28;20036;-73
2023/07/19 13:41:54;;;;;;;2.78;1.20;;;;;;;;;;5091858;28;20052;-73
2023/07/19 13:44:20;;;;;;;1.80;1.00;;;;;;;;;;5074005;28;20109;-73
2023/07/19 13:46:48;;;;;;;2.17;1.10;;;;;;;;;;5091910;28;20036;-73
2023/07/19 13:49:14;;;;;;;2.20;1.20;;;;;;;;;;5072886;28;20512;-73
2023/07/19 13:51:40;;;;;;;2.63;1.40;;;;;;;;;;5071404;28;20119;-73
2023/07/19 13:54:06;;;;;;;2.47;1.20;;;;;;;;;;5071615;28;20127;-73
2023/07/19 13:56:32;;;;;;;2.72;1.10;;;;;;;;;;5071490;28;20128;-73
2023/07/19 13:58:58;;;;;;;1.80;0.90;;;;;;;;;;5091647;28;20148;-73
2023/07/19 14:01:24;;;;;;;1.85;1.00;;;;;;;;;;5092385;28;20044;-73
2023/07/19 14:03:51;;;;;;;1.27;1.08;;;;;;;;;;5091829;28;20472;-72
2023/07/19 14:06:17;;;;;;;2.08;1.10;;;;;;;;;;5094236;28;20052;-72
2023/07/19 14:08:43;;;;;;;1.33;0.93;;;;;;;;;;5096019;28;20044;-72
2023/07/19 14:11:09;;;;;;;3.92;1.30;;;;;;;;;;5095681;28;20105;-72
2023/07/19 14:13:35;;;;;;;3.78;1.27;;;;;;;;;;5095626;28;20048;-73
2023/07/19 14:16:02;;;;;;;2.40;1.17;;;;;;;;;;5095408;28;20036;-73
2023/07/19 14:18:28;;;;;;;2.00;1.00;;;;;;;;;;5097175;28;20036;-73
2023/07/19 14:20:54;;;;;;;1.45;1.00;;;;;;;;;;5060647;28;20090;-72
2023/07/19 14:23:20;;;;;;;2.05;1.10;;;;;;;;;;5095737;28;20135;-72
2023/07/19 14:25:46;;;;;;;2.85;1.30;;;;;;;;;;5095199;28;20123;-72
2023/07/19 14:28:12;;;;;;;1.98;1.10;;;;;;;;;;5077080;28;20054;-72
2023/07/19 14:30:38;;;;;;;2.85;1.10;;;;;;;;;;5095473;28;20090;-72
2023/07/19 14:33:05;;;;;;;2.30;1.10;;;;;;;;;;5095376;28;20036;-72
2023/07/19 14:35:31;;;;;;;1.50;1.00;;;;;;;;;;5094837;28;20052;-73
2023/07/19 14:37:57;;;;;;;1.55;0.85;;;;;;;;;;5095012;28;20044;-73